Hartford, Connecticut
Traffic Map
Current Weather Conditions
Hartford, Connecticut
Overcast
Overcast
11°
Feels Like: 11°
Wind Chill: 11° Ceiling: 4200
Heat Index: 11° Visibility: 10mi
Dew Point: Wind: 7mph
Humidity: 63% Direction: 20° (NNE)
Pressure: 29.94in Gusts: 0mph
Raw Report DataKHFD 312053Z AUTO 02006KT 10SM OVC042 11/04 A2994 RMK AO2 SLP137 T01060039 57006
Traffic Incident Summary
Active as of:
Severity:
Category:
InformationThere was an issue retrieving the traffic information for this location. Please try a different location or try again shortly.
Advertisements
Track Severe Weather on mobile